TimeEST,TemperatureF,Dew PointF,Humidity,Sea Level PressureIn,VisibilityMPH,Wind Direction,Wind SpeedMPH,Gust SpeedMPH,PrecipitationIn,Events,Conditions,WindDirDegrees,DateUTC
12:54 AM,16.0,10.0,77,30.14,10.0,Calm,Calm,-,N/A,,Clear,0,2013-03-04 05:54:00
1:54 AM,16.0,10.9,81,30.13,10.0,Calm,Calm,-,N/A,,Clear,0,2013-03-04 06:54:00
2:54 AM,15.1,10.0,80,30.14,10.0,Calm,Calm,-,N/A,,Clear,0,2013-03-04 07:54:00
3:54 AM,15.1,10.9,84,30.15,10.0,Calm,Calm,-,N/A,,Partly Cloudy,0,2013-03-04 08:54:00
4:25 AM,17.6,12.2,79,30.11,10.0,Calm,Calm,-,N/A,,Mostly Cloudy,0,2013-03-04 09:25:00
4:54 AM,17.1,12.0,81,30.16,10.0,Calm,Calm,-,N/A,,Mostly Cloudy,0,2013-03-04 09:54:00
5:39 AM,17.6,12.2,79,30.13,10.0,Calm,Calm,-,N/A,,Scattered Clouds,0,2013-03-04 10:39:00
5:54 AM,17.1,12.0,81,30.17,10.0,Calm,Calm,-,N/A,,Clear,0,2013-03-04 10:54:00
6:54 AM,16.0,10.0,77,30.18,10.0,Calm,Calm,-,N/A,,Clear,0,2013-03-04 11:54:00
7:54 AM,18.0,12.9,81,30.18,10.0,Calm,Calm,-,N/A,,Clear,0,2013-03-04 12:54:00
8:54 AM,21.9,17.1,82,30.17,10.0,Calm,Calm,-,N/A,,Clear,0,2013-03-04 13:54:00
9:54 AM,26.1,18.0,71,30.16,10.0,East,6.9,-,N/A,,Clear,80,2013-03-04 14:54:00
10:54 AM,28.0,16.0,61,30.17,10.0,East,3.5,-,N/A,,Clear,90,2013-03-04 15:54:00
11:54 AM,30.9,16.0,54,30.14,10.0,East,5.8,-,N/A,,Clear,100,2013-03-04 16:54:00
12:54 PM,33.1,16.0,50,30.12,10.0,SE,6.9,-,N/A,,Clear,140,2013-03-04 17:54:00
1:54 PM,35.1,16.0,46,30.10,10.0,SE,6.9,-,N/A,,Clear,130,2013-03-04 18:54:00
2:54 PM,35.1,17.1,48,30.09,10.0,SSE,5.8,-,N/A,,Clear,150,2013-03-04 19:54:00
3:54 PM,35.1,17.1,48,30.08,10.0,SE,8.1,-,N/A,,Clear,130,2013-03-04 20:54:00
4:54 PM,35.1,17.1,48,30.08,10.0,ESE,9.2,-,N/A,,Overcast,110,2013-03-04 21:54:00
5:54 PM,34.0,18.0,52,30.06,10.0,East,8.1,-,N/A,,Overcast,100,2013-03-04 22:54:00
6:54 PM,34.0,19.0,54,30.06,10.0,East,8.1,-,N/A,,Overcast,100,2013-03-04 23:54:00
7:54 PM,34.0,18.0,52,30.07,10.0,East,6.9,-,N/A,,Overcast,90,2013-03-05 00:54:00
8:54 PM,34.0,18.0,52,30.08,10.0,East,5.8,-,N/A,,Overcast,100,2013-03-05 01:54:00
9:54 PM,33.1,18.0,54,30.09,10.0,East,4.6,-,N/A,,Overcast,90,2013-03-05 02:54:00
10:54 PM,32.0,21.9,66,30.09,10.0,ESE,6.9,-,0.00,,Overcast,120,2013-03-05 03:54:00
11:54 PM,32.0,24.1,73,30.09,10.0,SE,6.9,-,N/A,,Overcast,140,2013-03-05 04:54:00